Hauptseite
METAR-TAF:

METAR-TAF

Flughäfen :

Flughafen Cherbourg-Maupertus

Cherbourg, Frankreich

Breite: 49-39N, Länge: 001-28W, Höhe: 138 m

Beobachtung

Neuester Wetterbericht von vor 11 Minuten, um 23:00 UTC
Wind 11 kt aus Ost
Temperatur 10°C
Luftfeuchtigkeit 93%
Luftdruck 1023 hPa
Sichtweite: 0700 m
Nebel

METAR: LFRC 162300Z AUTO 10011KT 0800 0700 R28/1100N FG VV/// 10/09 Q1023

Zeit: 00:11 (23:11 UTC)

Prognose

Neuester Wetterbericht von vor 9 Stunden und 11 Minuten, um 14:00 UTC
Gültige Prognose vom 16 um 15 UTC bis 16 um 24 UTC
Wind 10 kt aus Ost/Südost
Sichtweite: 0300 m
Nebel
Übergehend zu
vom 16 um 15 UTC bis 16 um 18 UTC
Sichtweite: 2000 m
Durchbrochene Bewölkung in der Höhe von 500 ft
feuchter Dunst

TAF: LFRC 161400Z 1615/1624 12010KT 0300 FG VV/// BECMG 1615/1618 2000 BR BKN005

Wetterbeobachtungen und Prognosen von mehr als 4000 Flughäfen (METAR und TAF Bericht).

Die verfügbaren Stationen werden durch gelbe und rote Markierungen auf der Karte dargestellt.

Führen Sie die Maus auf sie, um den Namen der Station zu sehen.

Darauf klicken, um die Beobachtung von Wetterbeobachtungen und Prognosen zu sehen.

Um die Karte zu ändern : klicken Sie auf den grünen Tasten mit einem schwarzen Kreuz Zum Vergrößern, auf den grünen Button mit einem Gedankenstrich zu verkleinern, oder auf die grünen Pfeile für benachbarte Karten.


METAR-TAF: